Time;durP1;ratioP1;P1;durP2;ratioP2;P2;SDS_P1;SDS_P2;PMS_P1;PMS_P2;Temp;Humidity;BMP_temperature;BMP_pressure;BME280_temperature;BME280_humidity;BME280_pressure;Samples;Min_cycle;Max_cycle;Signal;HPM_P1;HPM_P2
2021/08/23 00:01:55;;;;;;;;;4.25;3.50;;;;;18.92;64.32;102000.69;4950606;28;45422;-72
2021/08/23 00:04:20;;;;;;;;;6.50;5.50;;;;;18.93;64.59;101997.00;4927316;28;48307;-75
2021/08/23 00:06:46;;;;;;;;;5.25;5.00;;;;;18.95;64.56;101997.66;4946271;28;45534;-71
2021/08/23 00:09:11;;;;;;;;;6.50;6.00;;;;;18.96;64.84;101990.44;4941377;28;45585;-67
2021/08/23 00:11:36;;;;;;;;;4.00;4.00;;;;;18.98;64.81;101991.13;4932348;28;45432;-71
2021/08/23 00:14:02;;;;;;;;;5.50;4.75;;;;;18.99;64.67;101988.28;4950968;28;46276;-68
2021/08/23 00:16:27;;;;;;;;;8.25;6.00;;;;;19.00;64.39;101984.56;4950899;28;45524;-69
2021/08/23 00:18:53;;;;;;;;;5.75;5.50;;;;;19.02;65.27;101985.25;4947196;28;45846;-69
2021/08/23 00:21:23;;;;;;;;;6.75;5.00;;;;;19.04;64.62;101990.41;4952191;28;45559;-68
2021/08/23 00:23:52;;;;;;;;;6.25;5.25;;;;;19.05;64.37;101984.88;4944449;28;47197;-70
2021/08/23 00:26:18;;;;;;;;;7.25;5.75;;;;;19.05;64.86;101995.59;4951030;28;45500;-71
2021/08/23 00:28:43;;;;;;;;;5.00;5.00;;;;;19.06;64.93;101981.19;4951833;28;45594;-72
2021/08/23 00:31:09;;;;;;;;;6.75;4.50;;;;;19.07;64.78;101990.91;4949355;28;45490;-67
2021/08/23 00:33:34;;;;;;;;;8.00;4.50;;;;;19.07;64.98;101982.88;4944900;28;45535;-68
2021/08/23 00:36:00;;;;;;;;;7.00;4.25;;;;;19.09;64.66;101993.44;4943325;28;45579;-68
2021/08/23 00:38:25;;;;;;;;;6.25;4.75;;;;;19.08;64.88;101986.38;4934713;28;45544;-71
2021/08/23 00:40:50;;;;;;;;;6.50;5.00;;;;;19.08;64.89;101981.03;4951753;28;45470;-70
2021/08/23 00:43:16;;;;;;;;;5.00;5.00;;;;;19.07;64.62;101985.56;4944389;28;46053;-71
2021/08/23 00:45:42;;;;;;;;;5.00;5.00;;;;;19.04;64.62;101979.69;4950729;28;45449;-70
2021/08/23 00:48:09;;;;;;;;;7.50;6.25;;;;;19.01;64.94;101980.88;4948299;28;45393;-67
2021/08/23 00:50:34;;;;;;;;;6.75;5.00;;;;;19.00;64.94;101970.34;4946164;28;45624;-70
2021/08/23 00:53:01;;;;;;;;;9.00;4.75;;;;;18.98;64.89;101975.88;4948953;28;45459;-71
2021/08/23 00:55:26;;;;;;;;;4.25;3.75;;;;;18.97;65.24;101976.91;4948882;28;45580;-69
2021/08/23 00:57:52;;;;;;;;;4.50;4.00;;;;;18.97;64.98;101966.19;4955064;28;45419;-68
2021/08/23 01:00:18;;;;;;;;;4.75;4.75;;;;;18.97;65.19;101971.53;4948175;28;45431;-71
2021/08/23 01:02:57;;;;;;;;;4.75;3.75;;;;;18.95;65.26;101970.88;4955767;28;45491;-68
2021/08/23 01:05:27;;;;;;;;;9.00;5.50;;;;;18.96;65.47;101966.34;4947719;28;45523;-71
2021/08/23 01:08:16;;;;;;;;;6.00;5.00;;;;;18.97;65.98;101974.22;4949096;28;45486;-71
2021/08/23 01:10:46;;;;;;;;;4.75;4.75;;;;;18.98;65.82;101967.00;4951848;28;45523;-69
2021/08/23 01:13:11;;;;;;;;;7.50;5.00;;;;;18.98;65.78;101964.34;4949843;28;45695;-71
2021/08/23 01:15:37;;;;;;;;;6.50;6.00;;;;;19.00;65.43;101967.69;4947496;28;45655;-71
2021/08/23 01:18:04;;;;;;;;;7.25;4.00;;;;;19.00;65.69;101968.50;4948748;28;45471;-67
2021/08/23 01:20:38;;;;;;;;;4.75;4.75;;;;;19.01;65.92;101964.81;4944771;28;45499;-71
2021/08/23 01:23:05;;;;;;;;;3.50;3.50;;;;;19.02;66.22;101971.84;4950859;28;47385;-74
2021/08/23 01:25:33;;;;;;;;;4.00;3.75;;;;;19.04;65.82;101968.97;4956551;28;45457;-67
2021/08/23 01:28:11;;;;;;;;;4.50;4.00;;;;;19.04;65.59;101977.88;4948227;28;45560;-68
2021/08/23 01:31:20;;;;;;;;;6.00;3.75;;;;;19.06;65.75;101973.16;4954776;28;45428;-67
2021/08/23 01:33:47;;;;;;;;;5.75;4.25;;;;;19.05;65.95;101974.16;4874169;29;46584;-67
2021/08/23 01:36:13;;;;;;;;;4.00;4.00;;;;;19.06;65.61;101973.16;4867603;29;45677;-72
2021/08/23 01:38:39;;;;;;;;;3.75;3.75;;;;;19.06;65.41;101970.47;4870275;29;45553;-69
2021/08/23 01:41:07;;;;;;;;;8.50;4.00;;;;;19.06;65.78;101981.19;4871988;29;45451;-71
2021/08/23 01:43:33;;;;;;;;;5.25;4.25;;;;;19.04;65.89;101980.56;4873071;29;46244;-68
2021/08/23 01:45:59;;;;;;;;;4.25;4.25;;;;;19.03;65.77;101981.53;4872054;29;45552;-67
2021/08/23 01:48:24;;;;;;;;;4.00;4.00;;;;;19.05;66.05;101982.22;4868875;29;45515;-72
2021/08/23 01:50:50;;;;;;;;;5.75;4.00;;;;;19.07;66.20;101979.38;4872323;29;45541;-71
2021/08/23 01:53:16;;;;;;;;;4.50;4.50;;;;;19.07;65.90;101990.91;4870458;29;45758;-71
2021/08/23 01:55:48;;;;;;;;;5.50;4.00;;;;;19.06;65.88;101978.50;4873103;29;45957;-69
2021/08/23 01:58:14;;;;;;;;;5.00;4.00;;;;;19.07;66.04;101971.31;4870365;29;45545;-68
2021/08/23 02:00:40;;;;;;;;;6.50;4.75;;;;;19.06;66.12;101981.19;4856498;29;45859;-71
2021/08/23 02:03:05;;;;;;;;;2.75;2.75;;;;;19.07;66.23;101977.50;4871254;29;45741;-70
2021/08/23 02:05:31;;;;;;;;;5.50;4.00;;;;;19.08;66.57;101981.03;4867143;29;45500;-70
2021/08/23 02:07:56;;;;;;;;;5.75;5.75;;;;;19.06;66.28;101980.34;4872456;29;45735;-74
2021/08/23 02:10:21;;;;;;;;;4.75;4.75;;;;;19.05;66.47;101984.88;4904675;28;45761;-74
2021/08/23 02:12:47;;;;;;;;;8.25;5.25;;;;;19.04;66.14;101985.03;4950748;28;45540;-75
2021/08/23 02:15:13;;;;;;;;;7.75;5.00;;;;;19.01;66.39;101980.88;4949804;28;45839;-71
2021/08/23 02:17:38;;;;;;;;;6.00;5.00;;;;;19.02;66.33;101977.22;4952792;28;45452;-67
2021/08/23 02:20:08;;;;;;;;;7.75;5.00;;;;;19.02;66.25;101979.88;4963993;28;45563;-67
2021/08/23 02:22:34;;;;;;;;;6.50;4.00;;;;;19.04;66.32;101974.34;4948739;28;47137;-71
2021/08/23 02:24:59;;;;;;;;;4.00;4.00;;;;;19.01;66.67;101983.56;4948878;28;45606;-71
2021/08/23 02:27:25;;;;;;;;;7.25;6.25;;;;;19.02;66.47;101979.88;4950789;28;45410;-71
2021/08/23 02:29:50;;;;;;;;;7.00;5.25;;;;;19.02;66.78;101981.75;4954804;28;45496;-71
2021/08/23 02:32:15;;;;;;;;;4.25;4.25;;;;;19.02;66.70;101982.56;4948970;28;46187;-67
2021/08/23 02:34:41;;;;;;;;;4.50;4.25;;;;;19.00;66.49;101979.22;4935111;28;45827;-67
2021/08/23 02:37:06;;;;;;;;;5.25;5.00;;;;;18.98;66.82;101985.75;4951196;28;45508;-69
2021/08/23 02:39:31;;;;;;;;;5.00;5.00;;;;;18.97;66.62;101979.56;4952496;28;45408;-67
2021/08/23 02:41:57;;;;;;;;;7.00;6.25;;;;;18.97;66.75;101981.44;4948079;28;46059;-71
2021/08/23 02:44:23;;;;;;;;;7.25;6.50;;;;;18.96;66.69;101980.56;4944507;28;45448;-71
2021/08/23 02:46:49;;;;;;;;;5.25;4.50;;;;;18.94;66.87;101979.94;4944610;28;45536;-71
2021/08/23 02:49:16;;;;;;;;;6.00;5.50;;;;;18.91;66.73;101970.38;4947590;28;45560;-67
2021/08/23 02:51:45;;;;;;;;;7.00;5.50;;;;;18.91;66.97;101975.72;4946092;28;46178;-71
2021/08/23 02:54:11;;;;;;;;;4.75;4.75;;;;;18.91;67.15;101974.91;4956859;28;45492;-69
2021/08/23 02:56:37;;;;;;;;;6.25;5.25;;;;;18.91;66.73;101980.25;4946581;28;45508;-71
2021/08/23 02:59:03;;;;;;;;;5.75;5.25;;;;;18.90;66.48;101982.09;4955280;28;45619;-70
2021/08/23 03:01:28;;;;;;;;;5.25;4.25;;;;;18.90;67.16;101976.75;4954158;28;46531;-70
2021/08/23 03:03:53;;;;;;;;;6.00;5.25;;;;;18.91;66.84;101970.38;4952017;28;45353;-67
2021/08/23 03:06:19;;;;;;;;;6.50;4.75;;;;;18.91;66.90;101975.72;4946829;28;45551;-70
2021/08/23 03:08:44;;;;;;;;;4.00;3.50;;;;;18.91;66.91;101967.69;4954641;28;45600;-74
2021/08/23 03:11:12;;;;;;;;;6.75;5.00;;;;;18.91;67.15;101975.72;4948370;28;45916;-68
2021/08/23 03:13:39;;;;;;;;;4.25;4.25;;;;;18.90;67.14;101973.25;4951105;28;45535;-66
2021/08/23 03:16:05;;;;;;;;;8.50;4.50;;;;;18.88;67.10;101964.53;4947532;28;45525;-66
2021/08/23 03:18:30;;;;;;;;;5.25;5.00;;;;;18.89;66.99;101968.88;4942935;28;45475;-69
2021/08/23 03:20:56;;;;;;;;;4.25;4.00;;;;;18.89;67.24;101975.09;4952181;28;45802;-69
2021/08/23 03:23:21;;;;;;;;;5.50;5.25;;;;;18.89;67.11;101976.91;4958868;28;45444;-67
2021/08/23 03:25:47;;;;;;;;;7.75;7.00;;;;;18.89;67.23;101975.09;4950370;28;45482;-70
2021/08/23 03:28:12;;;;;;;;;10.00;5.00;;;;;18.89;67.20;101979.59;4955768;28;45426;-71
2021/08/23 03:30:37;;;;;;;;;7.00;5.50;;;;;18.89;67.40;101982.28;4945332;28;45460;-69
2021/08/23 03:33:03;;;;;;;;;7.50;5.50;;;;;18.88;67.43;101986.78;4954590;28;45452;-70
2021/08/23 03:35:28;;;;;;;;;7.75;5.25;;;;;18.88;67.71;101978.75;4950938;28;45523;-68
2021/08/23 03:37:54;;;;;;;;;6.75;6.50;;;;;18.87;67.99;101984.31;4956301;28;45365;-74
2021/08/23 03:40:19;;;;;;;;;7.00;5.00;;;;;18.84;68.66;101981.97;4953093;28;45742;-69
2021/08/23 03:42:45;;;;;;;;;8.75;6.50;;;;;18.81;69.45;101979.63;4945145;28;45684;-67
2021/08/23 03:45:10;;;;;;;;;8.00;5.25;;;;;18.73;69.86;101985.84;4950135;28;45485;-66
2021/08/23 03:47:36;;;;;;;;;6.25;6.00;;;;;18.66;70.45;101980.31;4958167;28;45562;-71
2021/08/23 03:50:01;;;;;;;;;5.00;4.50;;;;;18.61;70.97;101977.31;4948146;28;53158;-71
2021/08/23 03:52:26;;;;;;;;;6.25;5.50;;;;;18.56;71.46;101977.00;4933363;28;45572;-71
2021/08/23 03:54:52;;;;;;;;;6.00;5.00;;;;;18.53;71.87;101976.53;4946343;28;45537;-73
2021/08/23 03:57:17;;;;;;;;;8.75;5.75;;;;;18.51;71.89;101974.00;4949284;28;45531;-68
2021/08/23 03:59:42;;;;;;;;;7.75;5.50;;;;;18.50;71.85;101971.53;4947745;28;45456;-71
2021/08/23 04:02:08;;;;;;;;;7.25;6.00;;;;;18.47;72.12;101976.22;4949469;28;49571;-67
2021/08/23 04:04:33;;;;;;;;;6.00;6.00;;;;;18.45;72.31;101974.72;4950506;28;45571;-67
2021/08/23 04:06:58;;;;;;;;;7.50;7.00;;;;;18.43;72.31;101974.03;4947521;28;45560;-73
2021/08/23 04:09:23;;;;;;;;;6.00;6.00;;;;;18.40;72.38;101972.53;4944502;28;47861;-71
2021/08/23 04:11:49;;;;;;;;;6.00;5.50;;;;;18.38;72.61;101973.72;4944674;28;45931;-69
2021/08/23 04:14:14;;;;;;;;;8.50;6.00;;;;;18.36;72.67;101981.09;4956797;28;45649;-71
2021/08/23 04:16:40;;;;;;;;;7.00;5.75;;;;;18.33;73.11;101978.75;4950770;28;45336;-70
2021/08/23 04:19:05;;;;;;;;;8.00;5.75;;;;;18.32;74.05;101975.22;4942540;28;45641;-68
2021/08/23 04:21:30;;;;;;;;;8.50;8.00;;;;;18.31;73.66;101975.41;4945331;28;45827;-71
2021/08/23 04:23:56;;;;;;;;;8.75;8.00;;;;;18.33;73.22;101978.75;4948865;28;45633;-71
2021/08/23 04:26:21;;;;;;;;;8.00;6.50;;;;;18.33;73.23;101976.09;4942966;28;45662;-72
2021/08/23 04:28:47;;;;;;;;;10.75;8.25;;;;;18.34;73.33;101977.75;4951410;28;47147;-67
2021/08/23 04:31:12;;;;;;;;;9.00;7.25;;;;;18.34;73.41;101983.09;4950080;28;45558;-71
2021/08/23 04:33:37;;;;;;;;;8.25;8.25;;;;;18.34;73.22;101977.75;4951677;28;45640;-73
2021/08/23 04:36:03;;;;;;;;;7.50;6.50;;;;;18.34;73.62;101988.44;4946196;28;45832;-68
2021/08/23 04:38:28;;;;;;;;;6.75;5.00;;;;;18.32;73.29;101982.41;4945154;28;45832;-67
2021/08/23 04:40:54;;;;;;;;;10.00;7.75;;;;;18.30;73.13;101981.75;4947772;28;45544;-71
2021/08/23 04:43:19;;;;;;;;;8.25;8.25;;;;;18.31;73.64;101983.44;4946418;28;45471;-71
2021/08/23 04:45:45;;;;;;;;;8.75;7.25;;;;;18.31;73.49;101983.44;4949895;28;45675;-70
2021/08/23 04:48:10;;;;;;;;;8.00;7.50;;;;;18.27;73.51;101988.28;4942488;28;46125;-69
2021/08/23 04:50:36;;;;;;;;;6.25;6.00;;;;;18.27;73.88;101989.13;4950789;28;45597;-70
2021/08/23 04:53:01;;;;;;;;;7.75;6.75;;;;;18.25;73.37;101991.16;4948505;28;45554;-70
2021/08/23 04:55:26;;;;;;;;;8.25;6.50;;;;;18.26;73.56;101992.81;4950230;28;45387;-74
2021/08/23 04:57:55;;;;;;;;;8.00;6.75;;;;;18.26;73.59;101998.16;4949691;28;51790;-67
2021/08/23 05:00:21;;;;;;;;;6.25;6.25;;;;;18.26;73.61;102000.00;4953387;28;45456;-72
2021/08/23 05:02:46;;;;;;;;;7.50;5.00;;;;;18.27;73.66;101999.84;4949652;28;45591;-69
2021/08/23 05:05:12;;;;;;;;;7.75;6.25;;;;;18.27;73.74;101998.97;4947734;28;45861;-77
2021/08/23 05:07:37;;;;;;;;;10.00;9.00;;;;;18.26;74.40;101997.31;4952359;28;45511;-67
2021/08/23 05:10:03;;;;;;;;;10.75;7.75;;;;;18.22;74.01;102004.88;4955685;28;45406;-70
2021/08/23 05:12:29;;;;;;;;;11.00;7.50;;;;;18.21;73.61;102007.69;4952260;28;45452;-70
2021/08/23 05:14:54;;;;;;;;;8.00;8.00;;;;;18.20;73.57;102008.69;4946711;28;45405;-71
2021/08/23 05:17:19;;;;;;;;;10.75;7.75;;;;;18.22;74.22;102007.53;4948850;28;46301;-69
2021/08/23 05:19:45;;;;;;;;;13.75;9.00;;;;;18.22;73.97;102009.34;4949597;28;45578;-71
2021/08/23 05:22:10;;;;;;;;;10.00;7.00;;;;;18.22;74.24;102006.69;4950362;28;45538;-74
2021/08/23 05:24:35;;;;;;;;;10.75;10.75;;;;;18.22;73.54;102012.91;4952399;28;45482;-77
2021/08/23 05:27:01;;;;;;;;;15.50;12.50;;;;;18.23;73.42;102019.06;4952272;28;46771;-76
2021/08/23 05:29:26;;;;;;;;;11.50;9.50;;;;;18.21;73.33;102011.19;4940124;28;45483;-78
2021/08/23 05:31:51;;;;;;;;;14.00;10.75;;;;;18.22;73.44;102007.53;4943302;28;45501;-78
2021/08/23 05:34:17;;;;;;;;;11.75;11.75;;;;;18.24;73.24;102012.72;4945150;28;45466;-73
2021/08/23 05:36:42;;;;;;;;;13.75;10.50;;;;;18.24;73.30;102018.88;4944846;28;45590;-68
2021/08/23 05:39:08;;;;;;;;;10.25;10.00;;;;;18.24;73.23;102021.56;4949806;28;45743;-70
2021/08/23 05:41:33;;;;;;;;;13.75;11.50;;;;;18.24;73.44;102026.91;4937363;28;45527;-74
2021/08/23 05:43:58;;;;;;;;;11.50;9.75;;;;;18.25;73.52;102020.56;4951362;28;45621;-71
2021/08/23 05:46:24;;;;;;;;;11.50;9.50;;;;;18.25;73.44;102019.75;4949340;28;46148;-77
2021/08/23 05:48:50;;;;;;;;;10.75;9.50;;;;;18.25;73.15;102028.59;4943968;28;45664;-80
2021/08/23 05:51:17;;;;;;;;;11.00;10.25;;;;;18.26;73.63;102024.91;4950039;28;45986;-68
2021/08/23 05:53:43;;;;;;;;;17.50;13.00;;;;;18.27;73.11;102033.78;4943684;28;45531;-80
2021/08/23 05:56:08;;;;;;;;;13.75;11.50;;;;;18.25;73.18;102028.59;4940405;28;46358;-68
2021/08/23 05:58:34;;;;;;;;;13.75;10.75;;;;;18.25;73.67;102028.59;4948235;28;45467;-70
2021/08/23 06:00:59;;;;;;;;;16.00;13.00;;;;;18.27;73.33;102031.94;4940377;28;45595;-68
2021/08/23 06:03:25;;;;;;;;;13.50;11.00;;;;;18.33;73.53;102037.63;4948671;28;45739;-69
2021/08/23 06:05:50;;;;;;;;;14.50;13.75;;;;;18.35;73.48;102040.97;4944213;28;46009;-72
2021/08/23 06:08:16;;;;;;;;;16.50;11.50;;;;;18.36;73.73;102039.97;4940103;28;45865;-69
2021/08/23 06:10:41;;;;;;;;;15.00;13.50;;;;;18.37;73.58;102047.84;4952931;28;45639;-70
2021/08/23 06:13:06;;;;;;;;;14.00;12.75;;;;;18.38;73.24;102048.66;4941098;28;45489;-68
2021/08/23 06:15:32;;;;;;;;;17.00;14.00;;;;;18.39;73.27;102051.16;4939529;28;46091;-73
2021/08/23 06:17:57;;;;;;;;;15.75;14.75;;;;;18.42;73.21;102055.34;4949634;28;45533;-68
2021/08/23 06:20:23;;;;;;;;;17.00;14.00;;;;;18.46;73.36;102054.81;4946728;28;45559;-77
2021/08/23 06:22:50;;;;;;;;;17.75;13.75;;;;;18.51;72.96;102058.84;4948535;28;45606;-68
2021/08/23 06:25:16;;;;;;;;;17.75;16.00;;;;;18.55;73.43;102062.88;4947663;28;45583;-72
2021/08/23 06:27:41;;;;;;;;;19.50;16.50;;;;;18.60;73.15;102064.03;4924065;28;45988;-70
2021/08/23 06:30:08;;;;;;;;;16.00;14.00;;;;;18.64;72.59;102060.00;4933849;28;45518;-71
2021/08/23 06:32:34;;;;;;;;;20.50;19.50;;;;;18.67;72.63;102062.34;4946772;28;45436;-71
2021/08/23 06:34:59;;;;;;;;;18.75;16.25;;;;;18.71;72.95;102052.09;4948624;28;47305;-67
2021/08/23 06:37:25;;;;;;;;;17.25;15.50;;;;;18.78;72.92;102054.97;4929386;28;45608;-77
2021/08/23 06:39:50;;;;;;;;;16.25;16.00;;;;;18.81;72.13;102054.63;4946279;28;45483;-71
2021/08/23 06:42:15;;;;;;;;;16.75;16.25;;;;;18.85;72.60;102050.59;4944011;28;45902;-76
2021/08/23 06:44:41;;;;;;;;;17.25;16.75;;;;;18.93;72.70;102053.25;4941837;28;46289;-71
2021/08/23 06:47:06;;;;;;;;;20.25;19.00;;;;;19.01;71.77;102049.69;4931844;28;45580;-69
2021/08/23 06:49:31;;;;;;;;;18.75;17.00;;;;;19.05;71.33;102057.22;4946421;28;45532;-72
2021/08/23 06:51:57;;;;;;;;;16.25;15.75;;;;;19.09;71.09;102058.56;4944235;28;45908;-67
2021/08/23 06:54:22;;;;;;;;;18.00;15.00;;;;;19.13;70.81;102064.41;4946540;28;46152;-71
2021/08/23 06:56:48;;;;;;;;;16.50;15.00;;;;;19.18;70.67;102062.03;4944393;28;45479;-68
2021/08/23 06:59:14;;;;;;;;;18.75;18.25;;;;;19.24;71.41;102055.16;4955204;28;46010;-71
2021/08/23 07:01:40;;;;;;;;;19.75;14.75;;;;;19.29;70.55;102056.28;4949659;28;45460;-77
2021/08/23 07:04:07;;;;;;;;;17.75;15.00;;;;;19.36;69.98;102052.91;4939861;28;45951;-69
2021/08/23 07:06:33;;;;;;;;;20.75;17.75;;;;;19.41;69.66;102058.56;4942363;28;45523;-70
2021/08/23 07:08:58;;;;;;;;;15.50;13.75;;;;;19.52;69.69;102053.66;4948756;28;45573;-76
2021/08/23 07:11:23;;;;;;;;;17.00;12.50;;;;;19.61;69.61;102050.91;4944457;28;45647;-70
2021/08/23 07:13:49;;;;;;;;;12.50;11.25;;;;;19.68;68.33;102051.91;4952527;28;45915;-71
2021/08/23 07:16:14;;;;;;;;;16.75;13.75;;;;;19.72;68.38;102053.22;4932109;28;45621;-68
2021/08/23 07:18:39;;;;;;;;;14.50;13.50;;;;;19.75;68.11;102060.91;4945624;28;45642;-68
2021/08/23 07:21:05;;;;;;;;;12.00;11.50;;;;;19.78;67.81;102057.88;4941137;28;45536;-68
2021/08/23 07:23:30;;;;;;;;;15.00;13.50;;;;;19.82;67.83;102067.25;4935906;28;48272;-70
2021/08/23 07:25:56;;;;;;;;;12.75;10.00;;;;;19.91;68.44;102066.16;4947488;28;45696;-71
2021/08/23 07:28:21;;;;;;;;;16.75;12.00;;;;;20.00;67.62;102068.78;4956147;28;45618;-73
2021/08/23 07:30:46;;;;;;;;;16.25;13.50;;;;;20.07;66.82;102067.06;4928723;28;45675;-67
2021/08/23 07:33:12;;;;;;;;;10.25;10.25;;;;;20.13;67.07;102066.34;4960150;28;46105;-68
2021/08/23 07:35:37;;;;;;;;;12.50;10.50;;;;;20.17;66.19;102067.63;4946517;28;45602;-72
2021/08/23 07:38:03;;;;;;;;;11.75;11.25;;;;;20.25;66.31;102058.69;4943176;28;45560;-71
2021/08/23 07:40:29;;;;;;;;;9.75;9.75;;;;;20.34;66.40;102063.78;4941794;28;45601;-66
2021/08/23 07:42:54;;;;;;;;;16.25;9.75;;;;;20.43;66.23;102064.56;4942819;28;45813;-73
2021/08/23 07:45:21;;;;;;;;;13.00;11.50;;;;;20.51;65.86;102060.97;4938988;28;45620;-66
2021/08/23 07:47:46;;;;;;;;;14.75;11.50;;;;;20.67;65.77;102060.81;4948101;28;45575;-70
2021/08/23 07:50:13;;;;;;;;;11.50;11.50;;;;;20.90;65.73;102062.59;4945277;28;45627;-74
2021/08/23 07:52:39;;;;;;;;;11.50;11.00;;;;;21.15;65.93;102061.28;4944433;28;45654;-70
2021/08/23 07:55:06;;;;;;;;;13.50;11.00;;;;;21.43;64.53;102066.00;4943826;28;45344;-67
2021/08/23 07:57:31;;;;;;;;;10.00;9.00;;;;;21.63;62.45;102066.22;4939689;28;45618;-67
2021/08/23 07:59:57;;;;;;;;;10.00;9.25;;;;;21.76;62.07;102063.69;4942249;28;45551;-73
2021/08/23 08:02:22;;;;;;;;;11.50;9.00;;;;;21.88;62.22;102059.44;4941717;28;45952;-67
2021/08/23 08:04:49;;;;;;;;;8.75;7.00;;;;;22.01;61.30;102056.03;4929840;28;45484;-67
2021/08/23 08:07:15;;;;;;;;;13.25;11.00;;;;;22.15;61.30;102050.75;4939179;28;45666;-73
2021/08/23 08:09:41;;;;;;;;;12.50;10.50;;;;;22.25;60.81;102045.91;4941318;28;45500;-73
2021/08/23 08:12:06;;;;;;;;;11.00;11.00;;;;;22.36;60.81;102050.78;4946403;28;56250;-72
2021/08/23 08:14:32;;;;;;;;;13.75;10.25;;;;;22.63;60.15;102059.88;4942783;28;45610;-73
2021/08/23 08:16:57;;;;;;;;;9.50;9.00;;;;;23.03;59.56;102059.28;4946676;28;45375;-68
2021/08/23 08:19:23;;;;;;;;;9.00;9.00;;;;;23.39;58.43;102059.84;4945135;28;45923;-70
2021/08/23 08:21:49;;;;;;;;;13.00;10.00;;;;;23.58;56.56;102060.09;4942039;28;45498;-71
2021/08/23 08:24:14;;;;;;;;;12.00;10.50;;;;;23.65;56.90;102062.84;4949234;28;45526;-73
2021/08/23 08:26:39;;;;;;;;;10.75;10.00;;;;;23.89;56.12;102058.75;4950129;28;45452;-70
2021/08/23 08:29:05;;;;;;;;;13.25;10.25;;;;;23.99;55.69;102064.56;4954183;28;45385;-67
2021/08/23 08:31:30;;;;;;;;;14.00;9.25;;;;;24.32;56.57;102053.75;4933466;28;46813;-70
2021/08/23 08:33:56;;;;;;;;;13.50;10.25;;;;;26.04;54.67;102059.56;4922765;28;45724;-67
2021/08/23 08:36:21;;;;;;;;;11.25;10.50;;;;;27.81;52.37;102053.34;4943215;28;45632;-74
2021/08/23 08:38:48;;;;;;;;;12.50;10.25;;;;;29.52;48.46;102054.97;4942864;28;45630;-67
2021/08/23 08:41:14;;;;;;;;;9.75;9.75;;;;;31.05;46.37;102047.50;4942400;28;45587;-68
2021/08/23 08:43:40;;;;;;;;;10.75;10.25;;;;;33.20;43.70;102038.94;4944998;28;46899;-73
2021/08/23 08:46:05;;;;;;;;;11.75;9.25;;;;;35.56;38.82;102038.41;4941400;28;45598;-70
2021/08/23 08:48:32;;;;;;;;;11.00;9.00;;;;;36.50;37.49;102043.56;4942326;28;45652;-71
2021/08/23 08:50:57;;;;;;;;;12.00;12.00;;;;;36.40;35.77;102049.16;4928093;28;47407;-71
2021/08/23 08:53:23;;;;;;;;;8.25;8.00;;;;;35.35;35.38;102058.88;4946710;28;45545;-67
2021/08/23 08:55:48;;;;;;;;;11.50;11.00;;;;;34.44;36.37;102065.28;4953217;28;45492;-71
2021/08/23 08:58:13;;;;;;;;;10.00;9.75;;;;;34.92;37.11;102066.78;4932597;28;45567;-74
2021/08/23 09:00:40;;;;;;;;;9.75;9.00;;;;;34.62;36.64;102063.91;4939998;28;46039;-67
2021/08/23 09:03:07;;;;;;;;;9.25;8.75;;;;;33.44;36.68;102060.38;4939837;28;45531;-68
2021/08/23 09:05:42;;;;;;;;;10.00;10.00;;;;;31.86;37.81;102077.56;4944468;28;45527;-71
2021/08/23 09:08:08;;;;;;;;;7.25;7.25;;;;;30.40;40.14;102084.53;4949136;28;45524;-68
2021/08/23 09:10:36;;;;;;;;;10.75;8.25;;;;;29.17;41.82;102068.72;4948834;28;45593;-67
2021/08/23 09:13:03;;;;;;;;;12.50;10.00;;;;;28.14;43.27;102076.50;4935789;28;45841;-67
2021/08/23 09:15:29;;;;;;;;;9.75;8.75;;;;;27.31;44.36;102074.56;4942266;28;45547;-70
2021/08/23 09:18:08;;;;;;;;;10.75;9.50;;;;;26.52;45.67;102090.63;4941530;28;46536;-70
2021/08/23 09:20:36;;;;;;;;;9.25;8.25;;;;;25.91;47.11;102097.56;4940910;28;45659;-70
2021/08/23 09:23:11;;;;;;;;;10.00;9.75;;;;;25.41;48.51;102079.28;4932604;28;45493;-72
2021/08/23 09:25:37;;;;;;;;;9.25;9.25;;;;;25.00;48.89;102083.19;4942316;28;45611;-68
2021/08/23 09:28:04;;;;;;;;;8.50;8.50;;;;;24.69;49.97;102075.78;4939980;28;45997;-68
2021/08/23 09:30:30;;;;;;;;;8.25;7.00;;;;;24.48;49.63;102084.97;4944523;28;46278;-67
2021/08/23 09:32:58;;;;;;;;;7.75;7.25;;;;;24.25;50.10;102082.63;4946218;28;45544;-70
2021/08/23 09:35:29;;;;;;;;;7.50;7.50;;;;;24.05;50.76;102085.34;4940646;28;46221;-68
2021/08/23 09:37:54;;;;;;;;;8.00;8.00;;;;;24.00;51.14;102077.03;4950082;28;45515;-69
2021/08/23 09:40:25;;;;;;;;;7.75;7.00;;;;;24.09;51.93;102080.38;4942901;28;45519;-68
2021/08/23 09:42:58;;;;;;;;;7.25;6.00;;;;;24.19;51.72;102078.91;4946231;28;45694;-71
2021/08/23 09:45:24;;;;;;;;;8.00;7.00;;;;;24.25;51.37;102085.34;4943999;28;45623;-68
2021/08/23 09:47:59;;;;;;;;;8.00;6.00;;;;;24.10;51.49;102085.56;4946459;28;45504;-68
2021/08/23 09:50:25;;;;;;;;;9.00;8.25;;;;;23.88;52.03;102084.06;4951880;28;46086;-70
2021/08/23 09:52:51;;;;;;;;;9.00;8.50;;;;;23.66;52.21;102080.66;4934696;28;45877;-69
2021/08/23 09:55:16;;;;;;;;;9.00;8.50;;;;;23.51;52.89;102084.34;4949342;28;45921;-69
2021/08/23 09:57:41;;;;;;;;;11.75;8.00;;;;;23.35;52.95;102087.44;4947280;28;45469;-73
2021/08/23 10:00:13;;;;;;;;;10.00;8.25;;;;;23.19;53.42;102091.28;4947537;28;46051;-68
2021/08/23 10:02:45;;;;;;;;;9.25;9.25;;;;;23.06;53.75;102093.94;4944328;28;45715;-72
2021/08/23 10:05:17;;;;;;;;;13.50;8.25;;;;;23.01;54.18;102085.63;4945939;28;45627;-68
2021/08/23 10:07:43;;;;;;;;;7.75;7.75;;;;;23.05;54.19;102089.59;4948735;28;45433;-72
2021/08/23 10:10:10;;;;;;;;;9.75;9.00;;;;;23.10;54.47;102092.50;4942618;28;47228;-72
2021/08/23 10:12:36;;;;;;;;;8.50;7.75;;;;;23.13;54.64;102086.72;4939757;28;46354;-72
2021/08/23 10:15:01;;;;;;;;;8.00;7.50;;;;;23.16;54.73;102086.31;4948399;28;45541;-71
2021/08/23 10:17:35;;;;;;;;;8.00;7.00;;;;;23.13;54.45;102097.50;4949289;28;45665;-73
2021/08/23 10:20:01;;;;;;;;;6.75;6.75;;;;;23.00;54.13;102087.47;4953348;28;46445;-71
2021/08/23 10:22:27;;;;;;;;;13.75;12.00;;;;;22.91;54.90;102086.78;4951758;28;45551;-72
2021/08/23 10:24:52;;;;;;;;;16.25;15.25;;;;;22.89;55.16;102088.81;4958189;28;45558;-70
2021/08/23 10:27:23;;;;;;;;;8.50;8.25;;;;;22.90;54.90;102081.59;4947380;28;45923;-69
2021/08/23 10:29:49;;;;;;;;;8.25;6.00;;;;;22.95;55.20;102081.81;4948994;28;46077;-71
2021/08/23 10:32:15;;;;;;;;;8.00;8.00;;;;;22.99;55.14;102080.41;4948354;28;45717;-71
2021/08/23 10:34:42;;;;;;;;;9.25;7.00;;;;;22.93;54.64;102083.88;4941073;28;45595;-71
2021/08/23 10:37:23;;;;;;;;;8.25;7.50;;;;;22.75;55.19;102087.94;4949545;28;45568;-69
2021/08/23 10:40:02;;;;;;;;;9.00;7.00;;;;;22.59;55.65;102080.13;4950462;28;46065;-70
2021/08/23 10:42:38;;;;;;;;;7.75;7.75;;;;;22.43;55.97;102075.91;4943063;28;45640;-70
2021/08/23 10:45:16;;;;;;;;;7.50;7.00;;;;;22.27;56.22;102092.31;4942698;28;45691;-69
2021/08/23 10:47:43;;;;;;;;;6.75;5.50;;;;;22.10;57.14;102102.50;4938576;28;45587;-69
2021/08/23 10:50:23;;;;;;;;;9.25;7.50;;;;;21.97;58.00;102099.69;4941755;28;46308;-71
2021/08/23 10:52:49;;;;;;;;;6.00;5.00;;;;;21.91;58.77;102098.59;4945732;28;45882;-73
2021/08/23 10:55:27;;;;;;;;;9.00;7.50;;;;;21.94;58.91;102086.63;4925531;28;45980;-71
2021/08/23 10:58:04;;;;;;;;;10.75;9.00;;;;;22.02;58.64;102089.16;4946281;28;45902;-69
2021/08/23 11:00:36;;;;;;;;;8.00;8.00;;;;;22.07;58.92;102079.47;4940605;28;46283;-69
2021/08/23 11:03:02;;;;;;;;;9.00;8.00;;;;;22.21;59.38;102080.47;4925364;28;45586;-71
2021/08/23 11:05:27;;;;;;;;;13.00;10.00;;;;;22.42;58.97;102071.53;4942079;28;45625;-71
2021/08/23 11:08:03;;;;;;;;;10.00;7.00;;;;;22.72;58.49;102074.00;4948121;28;45450;-70
2021/08/23 11:10:30;;;;;;;;;7.25;6.75;;;;;23.12;58.00;102067.00;4944002;28;47046;-71
2021/08/23 11:13:08;;;;;;;;;6.50;6.00;;;;;23.65;57.87;102066.34;4947367;28;45533;-71
2021/08/23 11:15:33;;;;;;;;;7.00;7.00;;;;;24.33;55.60;102068.94;4951603;28;45550;-68
2021/08/23 11:18:13;;;;;;;;;11.00;7.50;;;;;24.77;54.34;102066.59;4942679;28;45509;-71